Strona główna
METAR-TAF:

METAR-TAF

Lotnisko :

Bagdad, Irak

Port lotniczy Bagdad

Szerokość geograficzna: 33-15-45N, Długość geograficzna: 44-14-04E, wysokość: 35 m

Aktualna obserwacja pogody

Raport powstał 52 minut temu, godzina 13:00 UTC
Wiatr 15 kt od południowo-południowy wschód
Temperatura 20°C
Wilgotność 32%
Ciśnienie 1014 hPa
Widzialność 10 km lub więcej
Brak chmur poniżej 1500 m i brak chmur cumulonimbus

METAR: ORBI 181300Z 16015KT CAVOK 20/03 Q1014 NOSIG

czas: 16:52 (13:52 UTC)

Prognoza

Raport powstał 3 godziny i 52 minut temu, godzina 10:00 UTC
Prognoza ważna od 18 godzina 12 UTC do 19 godzina 12 UTC
Wiatr 15 kt od południowo-południowy wschód
Widzialność: 7000 m

TAF: ORBI 181000Z 1812/1912 15015KT 7000 NSC

Obserwacja i prognoza pogody dla ponad 4000 lotnisk (raport METAR i TAF).

Dostępne stacje oznaczono żółtymi i czerwonymi punktami na mapie.

Najedź kursorem aby zobaczyć nazwę stacji.

Kliknij aby zobaczyć obserwacje i prognozy pogody.

Aby zmienić mapę: kliknij na zielony przycisk z czarnym krzyżykiem, aby powiększyć; na zielony przycisk z myślnikiem, aby pomniejszyć; na zielone strzałki, aby przejść do map sąsiednich.


METAR-TAF: